메인 페이지
METAR-TAF:

METAR-TAF

공항 :

캘거리 국제공항

캘거리, 앨버타, 캐나다

위도: 51-07N, 경도: 114-01W, 고도: 1077m

현재 날씨관측

예보는 47분 전, 09:00시(UTC)에 발표되었습니다.
북북서7kt풍과 북북서풍을 오가는
온도 9°C
습도 34%
기압 1019 hPa
시정: 24.1km
고도 15000ft 상공 구름 조금
고도 25000ft 상공 구름 조금

METAR: CYYC 150900Z 33007KT 270V340 15SM FEW150 FEW250 09/M06 A3008 RMK AC1CI2 AC TR SLP207 DENSITY ALT 3700FT

시각: 03:47 (09:47 UTC)

예보

예보는 1 시간 9분 전, 08:38시(UTC)에 발표되었습니다.
예보 대상 시간: 15일 09시부터 16일 06시까지 (UTC)
서북서12kt, 순간 최대 풍속 22kt
시정: 10km
고도 20000ft 상공 구름 조금
전환 중
15일 10시부터 15일 12시까지 (UTC)
6kt
15일 1600시부터 (UTC)
12kt
시정: 10km
고도 8000ft 상공 구름 보통
16일 0400시부터 (UTC)
8kt
시정: 10km
맑음

TAF: CYYC 150838Z 1509/1606 30012G22KT P6SM FEW200 BECMG 1510/1512 26006KT FM151600 28012KT P6SM SCT080 FM160400 27008KT P6SM SKC RMK NXT FCST BY 151200Z

4,000개 이상의 공항 관측 자료 및 예보 (METAR 및 TAF 보고).

지도상에서 검색 가능한 기상관측소가 노란 점과 빨간 점으로 표시되어 있습니다.

기상관측소 명을 보려면 표시 위로 마우스를 이동하세요.

날씨 관측과 예보를 보려면 클릭하세요.

지도 변경 : 확대하려면 엑스 표시가 있는 녹색 버튼, 축소하려면 빼기 표시가 있는 녹색 버튼, 다음 페이지의 지도를 보려면 녹색 화살표를 클릭하세요.


METAR-TAF: